KSGH/SGH METAR and TAF weather

Enter ICAO airport designator
Station Type Date Time Source
KSGH METAR 2019/04/18 21:56 UTC NOAA

KSGH 182156Z AUTO 20014G21KT 10SM BKN065 24/12 A2963 RMK AO2 SLP029 T02390117


Station Type Date Time Source
KSGH Decoded METAR 2019/04/18 21:56 UTC NOAA

Springfield, Springfield-Beckley Municipal Airport, OH, United States (KSGH) 39-50-25N 083-50-24W
Apr 18, 2019 - 05:56 PM EDT / 2019.04.18 2156 UTC
Wind: from the SSW (200 degrees) at 16 MPH (14 KT) gusting to 24 MPH (21 KT):0
Visibility: 10 mile(s):0
Sky conditions: mostly cloudy
Temperature: 75.0 F (23.9 C)
Dew Point: 53.1 F (11.7 C)
Relative Humidity: 46%
Pressure (altimeter): 29.63 in. Hg (1003 hPa)
ob: KSGH 182156Z AUTO 20014G21KT 10SM BKN065 24/12 A2963 RMK AO2 SLP029 T02390117
cycle: 22

Station Type Date Time Source
KSGH TAF UTC NOAA

Error!

Example: see airport list